createdAt,value
2022-09-07T00:01:47.157Z,12.40
2022-09-07T00:04:20.582Z,8.70
2022-09-07T00:06:54.302Z,11.80
2022-09-07T00:09:28.017Z,13.00
2022-09-07T00:12:01.445Z,10.80
2022-09-07T00:14:35.719Z,11.90
2022-09-07T00:17:09.310Z,14.50
2022-09-07T00:19:43.018Z,11.80
2022-09-07T00:22:16.602Z,13.20
2022-09-07T00:24:50.168Z,15.60
2022-09-07T00:27:23.869Z,14.40
2022-09-07T00:29:57.393Z,12.50
2022-09-07T00:32:31.065Z,11.60
2022-09-07T00:35:05.222Z,11.30
2022-09-07T00:37:38.529Z,11.60
2022-09-07T00:40:13.124Z,12.40
2022-09-07T00:42:46.719Z,9.60
2022-09-07T00:45:21.252Z,10.90
2022-09-07T00:48:00.993Z,11.90
2022-09-07T00:50:39.654Z,11.80
2022-09-07T00:53:18.119Z,12.10
2022-09-07T00:55:54.224Z,10.40
2022-09-07T00:58:29.512Z,10.40
2022-09-07T01:01:03.097Z,10.10
2022-09-07T01:03:41.640Z,12.40
2022-09-07T01:06:18.852Z,11.20
2022-09-07T01:08:53.806Z,12.60
2022-09-07T01:11:27.334Z,10.80
2022-09-07T01:14:00.735Z,10.80
2022-09-07T01:16:48.341Z,12.90
2022-09-07T01:19:49.573Z,9.80
2022-09-07T01:22:44.055Z,10.90
2022-09-07T01:25:31.111Z,9.40
2022-09-07T01:28:22.289Z,12.30
2022-09-07T01:30:59.570Z,11.60
2022-09-07T01:33:45.326Z,11.60
2022-09-07T01:36:29.580Z,12.30
2022-09-07T01:39:05.456Z,10.40
2022-09-07T01:41:45.631Z,10.00
2022-09-07T01:44:23.657Z,13.30
2022-09-07T01:47:03.189Z,12.90
2022-09-07T01:49:42.309Z,9.80
2022-09-07T01:52:24.990Z,9.40
2022-09-07T01:55:05.747Z,11.10
2022-09-07T01:57:44.131Z,10.90
2022-09-07T02:00:21.812Z,11.70
2022-09-07T02:03:00.876Z,9.60
2022-09-07T02:05:41.049Z,10.00
2022-09-07T02:08:19.777Z,9.80
2022-09-07T02:10:57.309Z,11.40
2022-09-07T02:13:35.666Z,10.80
2022-09-07T02:16:12.695Z,12.20
2022-09-07T02:18:49.446Z,9.90
2022-09-07T02:21:28.263Z,11.20
2022-09-07T02:24:07.246Z,10.80
2022-09-07T02:29:14.916Z,11.90
2022-09-07T02:31:48.530Z,11.80
2022-09-07T02:34:22.454Z,10.20
2022-09-07T02:36:57.776Z,9.20
2022-09-07T02:39:31.430Z,9.70
2022-09-07T02:42:04.743Z,9.60
2022-09-07T02:44:41.738Z,13.40
2022-09-07T02:47:28.778Z,9.70
2022-09-07T02:50:30.926Z,11.00
2022-09-07T02:53:29.513Z,10.20
2022-09-07T02:56:13.990Z,9.40
2022-09-07T02:58:57.105Z,10.30
2022-09-07T03:01:41.859Z,9.80
2022-09-07T03:04:25.939Z,11.40
2022-09-07T03:07:06.038Z,9.60
2022-09-07T03:09:44.468Z,9.80
2022-09-07T03:12:18.296Z,10.10
2022-09-07T03:14:51.904Z,10.00
2022-09-07T03:17:25.411Z,12.10
2022-09-07T03:19:58.923Z,10.90
2022-09-07T03:22:34.309Z,12.10
2022-09-07T03:25:09.542Z,11.80
2022-09-07T03:27:43.861Z,13.30
2022-09-07T03:30:18.450Z,13.10
2022-09-07T03:32:52.114Z,11.80
2022-09-07T03:35:25.692Z,12.40
2022-09-07T03:37:59.297Z,10.00
2022-09-07T03:40:32.599Z,11.80
2022-09-07T03:43:06.108Z,11.10
2022-09-07T03:45:39.667Z,9.70
2022-09-07T03:48:13.304Z,12.10
2022-09-07T03:50:46.977Z,11.30
2022-09-07T03:53:20.435Z,11.50
2022-09-07T03:56:05.183Z,10.10
2022-09-07T03:58:39.229Z,11.10
2022-09-07T04:01:15.603Z,11.70
2022-09-07T04:03:50.232Z,12.60
2022-09-07T04:06:23.951Z,10.00
2022-09-07T04:08:57.825Z,11.10
2022-09-07T04:11:32.246Z,9.80
2022-09-07T04:14:06.301Z,10.40
2022-09-07T04:16:40.013Z,13.20
2022-09-07T04:19:14.513Z,12.10
2022-09-07T04:21:48.386Z,12.40
2022-09-07T04:24:22.039Z,15.20
2022-09-07T04:26:56.150Z,11.50
2022-09-07T04:29:33.207Z,11.70
2022-09-07T04:32:07.035Z,10.30
2022-09-07T04:34:40.791Z,10.80
2022-09-07T04:37:14.547Z,11.70
2022-09-07T04:39:48.513Z,12.00
2022-09-07T04:42:22.321Z,15.00
2022-09-07T04:44:55.625Z,10.50
2022-09-07T04:47:31.122Z,17.50
2022-09-07T04:50:04.745Z,11.40
2022-09-07T04:52:38.272Z,19.20
2022-09-07T04:55:13.368Z,14.00
2022-09-07T04:57:46.991Z,11.60
2022-09-07T05:00:21.040Z,16.50
2022-09-07T05:02:54.578Z,14.10
2022-09-07T05:05:28.108Z,13.10
2022-09-07T05:08:01.419Z,18.10
2022-09-07T05:10:35.407Z,15.40
2022-09-07T05:13:09.419Z,13.40
2022-09-07T05:15:43.560Z,14.10
2022-09-07T05:18:17.425Z,12.10
2022-09-07T05:20:50.703Z,12.00
2022-09-07T05:23:24.748Z,9.50
2022-09-07T05:25:58.101Z,9.80
2022-09-07T05:28:31.906Z,8.40
2022-09-07T05:31:18.964Z,9.90
2022-09-07T05:36:48.112Z,9.40
2022-09-07T05:39:22.240Z,10.30
2022-09-07T05:41:55.771Z,13.90
2022-09-07T05:44:45.119Z,11.20
2022-09-07T05:47:19.880Z,10.40
2022-09-07T05:49:57.263Z,9.10
2022-09-07T05:52:30.905Z,16.90
2022-09-07T05:55:26.244Z,42.90
2022-09-07T05:57:57.871Z,20.20
2022-09-07T06:00:32.048Z,22.60
2022-09-07T06:03:06.115Z,15.20
2022-09-07T06:05:39.944Z,19.40
2022-09-07T06:08:14.122Z,56.10
2022-09-07T06:10:47.729Z,37.40
2022-09-07T06:13:21.401Z,46.50
2022-09-07T06:15:55.080Z,13.60
2022-09-07T06:18:33.188Z,8.40
2022-09-07T06:21:11.020Z,9.20
2022-09-07T06:23:45.672Z,12.00
2022-09-07T06:26:20.510Z,8.60
2022-09-07T06:28:57.630Z,14.80
2022-09-07T06:31:31.975Z,10.00
2022-09-07T06:34:05.869Z,10.10
2022-09-07T06:36:39.229Z,13.60
2022-09-07T06:39:13.499Z,11.10
2022-09-07T06:42:01.830Z,10.20
2022-09-07T06:44:37.376Z,7.60
2022-09-07T06:47:11.524Z,8.00
2022-09-07T06:49:44.882Z,9.20
2022-09-07T06:52:18.513Z,10.90
2022-09-07T06:54:59.890Z,5.80
2022-09-07T06:57:34.216Z,7.40
2022-09-07T07:00:09.327Z,8.30
2022-09-07T07:02:42.911Z,5.40
2022-09-07T07:05:16.722Z,5.90
2022-09-07T07:07:50.384Z,6.00
2022-09-07T07:10:24.974Z,5.00
2022-09-07T07:12:58.945Z,4.60
2022-09-07T07:15:33.738Z,6.20
2022-09-07T07:18:20.233Z,6.20
2022-09-07T07:20:54.933Z,6.00
2022-09-07T07:23:28.732Z,6.20
2022-09-07T07:26:06.757Z,5.60
2022-09-07T07:31:35.405Z,5.60
2022-09-07T07:34:09.510Z,5.30
2022-09-07T07:36:43.413Z,5.80
2022-09-07T07:42:12.666Z,4.10
2022-09-07T07:44:46.443Z,2.30
2022-09-07T07:47:20.400Z,6.00
2022-09-07T07:50:30.765Z,7.50
2022-09-07T07:53:39.594Z,3.90
2022-09-07T07:55:44.730Z,5.50
2022-09-07T07:58:18.647Z,4.00
2022-09-07T08:00:56.307Z,4.10
2022-09-07T08:03:30.489Z,3.50
2022-09-07T08:06:08.713Z,6.30
2022-09-07T08:08:43.482Z,3.40
2022-09-07T08:11:19.390Z,2.00
2022-09-07T08:13:55.202Z,1.90
2022-09-07T08:16:29.063Z,4.10
2022-09-07T08:19:02.821Z,3.40
2022-09-07T08:21:36.170Z,4.60
2022-09-07T08:24:10.629Z,3.50
2022-09-07T08:26:44.265Z,1.90
2022-09-07T08:29:18.440Z,3.90
2022-09-07T08:31:52.566Z,4.30
2022-09-07T08:34:26.255Z,4.40
2022-09-07T08:37:00.165Z,5.20
2022-09-07T08:39:33.911Z,2.60
2022-09-07T08:42:33.514Z,3.20
2022-09-07T08:45:13.572Z,4.60
2022-09-07T08:47:51.573Z,5.90
2022-09-07T08:50:29.845Z,3.20
2022-09-07T08:53:09.347Z,3.30
2022-09-07T08:55:49.091Z,4.00
2022-09-07T08:58:47.558Z,3.70
2022-09-07T09:01:36.695Z,3.90
2022-09-07T09:04:20.572Z,5.00
2022-09-07T09:07:14.101Z,4.60
2022-09-07T09:10:05.783Z,3.90
2022-09-07T09:12:57.311Z,3.90
2022-09-07T09:15:42.627Z,5.70
2022-09-07T09:18:25.726Z,5.20
2022-09-07T09:21:00.995Z,5.30
2022-09-07T09:23:40.973Z,5.50
2022-09-07T09:26:20.786Z,5.20
2022-09-07T09:28:54.369Z,8.40
2022-09-07T09:31:30.495Z,2.60
2022-09-07T09:34:15.066Z,4.80
2022-09-07T09:36:53.162Z,3.50
2022-09-07T09:39:34.279Z,3.60
2022-09-07T09:42:25.186Z,5.10
2022-09-07T09:45:07.627Z,4.00
2022-09-07T09:47:41.955Z,3.50
2022-09-07T09:53:29.799Z,1.60
2022-09-07T09:56:05.159Z,5.40
2022-09-07T10:01:36.811Z,5.00
2022-09-07T10:04:35.214Z,3.90
2022-09-07T10:07:19.305Z,5.00
2022-09-07T10:09:56.971Z,5.50
2022-09-07T10:12:34.822Z,4.10
2022-09-07T10:15:33.669Z,4.10
2022-09-07T10:18:19.671Z,1.60
2022-09-07T10:20:53.317Z,2.10
2022-09-07T10:23:29.164Z,5.40
2022-09-07T10:26:21.417Z,2.10
2022-09-07T10:29:14.710Z,4.90
2022-09-07T10:32:07.731Z,4.70
2022-09-07T10:34:52.832Z,2.20
2022-09-07T10:37:35.910Z,4.90
2022-09-07T10:40:23.554Z,3.70
2022-09-07T10:43:23.539Z,2.80
2022-09-07T10:49:24.355Z,8.90
2022-09-07T10:52:07.944Z,2.90
2022-09-07T10:54:51.959Z,2.20
2022-09-07T10:57:53.324Z,2.30
2022-09-07T11:00:31.953Z,6.20
2022-09-07T11:03:25.577Z,4.30
2022-09-07T11:06:12.609Z,2.60
2022-09-07T11:09:21.947Z,4.00
2022-09-07T11:12:03.601Z,8.80
2022-09-07T11:14:44.001Z,4.20
2022-09-07T11:17:23.099Z,2.70
2022-09-07T11:20:05.377Z,3.20
2022-09-07T11:22:44.690Z,3.90
2022-09-07T11:25:30.181Z,4.00
2022-09-07T11:28:10.706Z,2.10
2022-09-07T11:30:50.180Z,3.80
2022-09-07T11:33:28.308Z,5.40
2022-09-07T11:36:12.283Z,5.60
2022-09-07T11:38:51.634Z,2.30
2022-09-07T11:41:29.623Z,4.80
2022-09-07T11:44:08.007Z,3.80
2022-09-07T11:46:45.973Z,3.00
2022-09-07T11:49:23.564Z,3.10
2022-09-07T11:52:04.971Z,3.20
2022-09-07T11:54:53.969Z,2.70
2022-09-07T11:57:55.447Z,2.50
2022-09-07T12:00:42.739Z,2.20
2022-09-07T12:03:33.317Z,3.00
2022-09-07T12:06:45.493Z,3.60
2022-09-07T12:09:38.478Z,5.40
2022-09-07T12:12:36.624Z,4.50
2022-09-07T12:15:25.510Z,3.10
2022-09-07T12:18:14.958Z,4.70
2022-09-07T12:20:50.402Z,2.60
2022-09-07T12:23:31.340Z,4.30
2022-09-07T12:26:39.853Z,4.70
2022-09-07T12:29:30.465Z,3.30
2022-09-07T12:34:59.747Z,4.10
2022-09-07T12:37:49.665Z,4.50
2022-09-07T12:41:00.883Z,3.50
2022-09-07T12:44:07.659Z,4.20
2022-09-07T12:47:02.405Z,3.60
2022-09-07T12:50:07.049Z,3.50
2022-09-07T12:52:56.493Z,2.80
2022-09-07T12:59:02.453Z,4.00
2022-09-07T13:01:52.361Z,3.00
2022-09-07T13:04:55.489Z,3.10
2022-09-07T13:08:08.002Z,4.60
2022-09-07T13:10:43.936Z,2.60
2022-09-07T13:20:03.735Z,4.70
2022-09-07T13:23:22.258Z,2.40
2022-09-07T13:25:59.250Z,4.00
2022-09-07T13:28:54.928Z,3.00
2022-09-07T13:31:45.632Z,4.50
2022-09-07T13:34:58.731Z,3.60
2022-09-07T13:37:37.029Z,2.70
2022-09-07T13:40:16.889Z,4.40
2022-09-07T13:42:52.566Z,3.40
2022-09-07T13:45:45.999Z,5.50
2022-09-07T13:48:26.982Z,4.60
2022-09-07T13:51:08.389Z,2.10
2022-09-07T13:54:05.936Z,2.50
2022-09-07T13:56:51.012Z,4.50
2022-09-07T13:59:28.609Z,2.00
2022-09-07T14:02:03.040Z,3.30
2022-09-07T14:04:41.168Z,3.40
2022-09-07T14:07:19.140Z,3.60
2022-09-07T14:10:05.329Z,3.30
2022-09-07T14:12:47.375Z,3.70
2022-09-07T14:15:29.823Z,2.20
2022-09-07T14:18:12.685Z,2.60
2022-09-07T14:20:49.852Z,4.70
2022-09-07T14:23:28.888Z,2.80
2022-09-07T14:26:20.755Z,2.60
2022-09-07T14:28:55.855Z,4.50
2022-09-07T14:31:30.933Z,2.90
2022-09-07T14:34:04.816Z,2.60
2022-09-07T14:36:45.870Z,5.80
2022-09-07T14:39:22.980Z,4.50
2022-09-07T14:41:56.606Z,2.20
2022-09-07T14:44:41.089Z,4.90
2022-09-07T14:47:29.271Z,3.80
2022-09-07T14:50:06.527Z,4.20
2022-09-07T14:53:33.640Z,4.90
2022-09-07T14:55:39.267Z,3.20
2022-09-07T14:58:25.401Z,2.90
2022-09-07T15:04:20.427Z,5.80
2022-09-07T15:07:01.587Z,3.40
2022-09-07T15:09:40.577Z,6.40
2022-09-07T15:12:36.094Z,4.00
2022-09-07T15:15:26.141Z,5.00
2022-09-07T15:18:08.255Z,4.20
2022-09-07T15:20:44.563Z,3.00
2022-09-07T15:23:20.318Z,6.00
2022-09-07T15:25:54.437Z,6.90
2022-09-07T15:31:56.867Z,6.00
2022-09-07T15:34:24.621Z,6.20
2022-09-07T15:37:01.045Z,4.20
2022-09-07T15:39:35.987Z,5.20
2022-09-07T15:45:05.668Z,5.30
2022-09-07T15:47:43.965Z,6.70
2022-09-07T15:50:23.702Z,5.90
2022-09-07T15:52:57.557Z,12.20
2022-09-07T15:55:34.562Z,5.90
2022-09-07T15:58:11.843Z,6.20
2022-09-07T16:00:46.368Z,4.70
2022-09-07T16:03:20.138Z,5.10
2022-09-07T16:05:54.049Z,4.40
2022-09-07T16:08:32.790Z,3.70
2022-09-07T16:11:18.537Z,4.70
2022-09-07T16:13:56.370Z,5.00
2022-09-07T16:19:23.971Z,7.70
2022-09-07T16:21:57.788Z,4.90
2022-09-07T16:24:31.592Z,5.90
2022-09-07T16:27:05.168Z,7.00
2022-09-07T16:29:38.947Z,2.90
2022-09-07T16:35:06.637Z,3.20
2022-09-07T16:38:43.630Z,3.50
2022-09-07T16:40:33.958Z,3.60
2022-09-07T16:43:07.103Z,9.00
2022-09-07T16:48:35.778Z,6.60
2022-09-07T16:51:11.369Z,8.40
2022-09-07T16:53:45.195Z,6.60
2022-09-07T16:56:20.680Z,9.00
2022-09-07T16:58:56.561Z,10.20
2022-09-07T17:01:32.308Z,8.40
2022-09-07T17:04:10.731Z,6.80
2022-09-07T17:06:45.459Z,6.60
2022-09-07T17:09:19.222Z,5.20
2022-09-07T17:11:52.534Z,8.50
2022-09-07T17:14:28.615Z,5.00
2022-09-07T17:17:02.140Z,6.50
2022-09-07T17:19:36.266Z,6.70
2022-09-07T17:22:09.996Z,11.80
2022-09-07T17:24:43.845Z,13.40
2022-09-07T17:27:17.881Z,4.70
2022-09-07T17:29:53.795Z,6.90
2022-09-07T17:32:28.950Z,10.20
2022-09-07T17:35:02.745Z,5.60
2022-09-07T17:37:36.845Z,11.70
2022-09-07T17:40:12.955Z,6.30
2022-09-07T17:45:44.958Z,13.50
2022-09-07T17:48:18.688Z,7.80
2022-09-07T17:51:01.421Z,7.20
2022-09-07T17:53:35.175Z,9.30
2022-09-07T17:56:10.763Z,8.90
2022-09-07T17:58:45.426Z,11.60
2022-09-07T18:01:20.505Z,8.90
2022-09-07T18:03:55.020Z,7.10
2022-09-07T18:06:30.299Z,7.60
2022-09-07T18:09:07.483Z,6.10
2022-09-07T18:11:45.989Z,8.90
2022-09-07T18:14:21.625Z,12.00
2022-09-07T18:16:55.261Z,6.70
2022-09-07T18:19:28.623Z,7.40
2022-09-07T18:22:04.630Z,7.00
2022-09-07T18:24:38.812Z,7.80
2022-09-07T18:27:13.019Z,9.40
2022-09-07T18:29:46.743Z,7.20
2022-09-07T18:32:20.234Z,8.80
2022-09-07T18:34:54.215Z,8.60
2022-09-07T18:37:28.324Z,7.70
2022-09-07T18:40:06.794Z,7.30
2022-09-07T18:42:42.743Z,5.80
2022-09-07T18:45:32.500Z,8.40
2022-09-07T18:48:07.139Z,7.90
2022-09-07T18:50:42.270Z,11.30
2022-09-07T18:53:17.027Z,11.60
2022-09-07T18:55:51.048Z,8.90
2022-09-07T18:58:25.018Z,8.50
2022-09-07T19:00:59.704Z,8.60
2022-09-07T19:03:34.860Z,11.80
2022-09-07T19:06:11.101Z,8.60
2022-09-07T19:08:47.772Z,9.40
2022-09-07T19:11:24.649Z,10.20
2022-09-07T19:14:04.819Z,10.20
2022-09-07T19:16:39.194Z,9.30
2022-09-07T19:19:16.227Z,7.50
2022-09-07T19:21:50.466Z,9.00
2022-09-07T19:24:24.170Z,8.50
2022-09-07T19:27:00.627Z,11.70
2022-09-07T19:29:35.501Z,11.80
2022-09-07T19:32:12.616Z,8.10
2022-09-07T19:34:48.181Z,10.60
2022-09-07T19:37:26.215Z,8.80
2022-09-07T19:40:00.591Z,10.30
2022-09-07T19:42:34.792Z,10.10
2022-09-07T19:45:11.029Z,8.00
2022-09-07T19:47:44.811Z,9.20
2022-09-07T19:50:20.266Z,9.80
2022-09-07T19:52:54.303Z,11.20
2022-09-07T19:55:28.827Z,15.10
2022-09-07T19:58:02.757Z,9.20
2022-09-07T20:03:31.756Z,10.70
2022-09-07T20:06:11.346Z,32.10
2022-09-07T20:08:45.910Z,10.70
2022-09-07T20:11:20.819Z,11.60
2022-09-07T20:13:54.933Z,10.90
2022-09-07T20:16:29.466Z,9.00
2022-09-07T20:19:03.906Z,9.70
2022-09-07T20:21:38.787Z,11.60
2022-09-07T20:24:15.033Z,9.80
2022-09-07T20:26:48.946Z,8.50
2022-09-07T20:29:29.690Z,9.80
2022-09-07T20:32:04.014Z,11.10
2022-09-07T20:34:38.065Z,9.90
2022-09-07T20:37:11.622Z,9.60
2022-09-07T20:39:45.383Z,9.30
2022-09-07T20:42:19.297Z,9.70
2022-09-07T20:44:53.893Z,12.10
2022-09-07T20:47:27.272Z,8.50
2022-09-07T20:50:00.641Z,9.30
2022-09-07T20:52:34.103Z,8.80
2022-09-07T20:55:08.881Z,9.10
2022-09-07T20:57:42.222Z,10.70
2022-09-07T21:00:16.392Z,9.40
2022-09-07T21:02:50.260Z,8.50
2022-09-07T21:05:24.141Z,10.00
2022-09-07T21:07:58.176Z,9.60
2022-09-07T21:10:31.740Z,8.50
2022-09-07T21:13:05.358Z,9.30
2022-09-07T21:15:42.990Z,8.20
2022-09-07T21:18:18.270Z,10.00
2022-09-07T21:21:18.843Z,9.70
2022-09-07T21:23:58.443Z,10.70
2022-09-07T21:26:32.558Z,7.50
2022-09-07T21:29:06.803Z,10.10
2022-09-07T21:31:40.884Z,9.70
2022-09-07T21:34:14.842Z,11.30
2022-09-07T21:36:48.435Z,8.20
2022-09-07T21:39:22.587Z,8.60
2022-09-07T21:41:56.146Z,9.60
2022-09-07T21:44:29.569Z,12.30
2022-09-07T21:47:03.074Z,10.50
2022-09-07T21:49:36.763Z,9.00
2022-09-07T21:52:10.277Z,8.00
2022-09-07T21:54:44.710Z,12.00
2022-09-07T21:57:18.157Z,9.10
2022-09-07T21:59:51.827Z,10.20
2022-09-07T22:02:25.713Z,11.70
2022-09-07T22:04:59.361Z,9.60
2022-09-07T22:07:32.643Z,9.60
2022-09-07T22:10:06.924Z,9.50
2022-09-07T22:12:40.109Z,9.30
2022-09-07T22:15:14.399Z,12.90
2022-09-07T22:17:48.229Z,14.00
2022-09-07T22:20:21.889Z,9.20
2022-09-07T22:22:55.513Z,9.40
2022-09-07T22:25:28.777Z,12.30
2022-09-07T22:28:02.297Z,10.00
2022-09-07T22:30:35.508Z,9.70
2022-09-07T22:33:09.189Z,11.60
2022-09-07T22:35:42.473Z,10.30
2022-09-07T22:38:16.105Z,10.40
2022-09-07T22:40:49.671Z,11.00
2022-09-07T22:43:23.155Z,9.80
2022-09-07T22:45:56.553Z,10.20
2022-09-07T22:48:30.890Z,9.80
2022-09-07T22:51:05.584Z,9.80
2022-09-07T22:53:41.716Z,13.20
2022-09-07T22:56:17.351Z,12.70
2022-09-07T22:58:52.797Z,11.10
2022-09-07T23:01:27.268Z,8.70
2022-09-07T23:04:01.650Z,8.70
2022-09-07T23:06:36.962Z,7.50
2022-09-07T23:09:12.124Z,12.60
2022-09-07T23:11:46.611Z,11.20
2022-09-07T23:14:22.409Z,9.90
2022-09-07T23:16:56.938Z,9.50
2022-09-07T23:19:30.164Z,12.10
2022-09-07T23:22:03.266Z,11.50
2022-09-07T23:24:37.101Z,8.80
2022-09-07T23:27:10.842Z,9.50
2022-09-07T23:29:44.521Z,13.10
2022-09-07T23:32:17.725Z,9.50
2022-09-07T23:34:54.064Z,12.40
2022-09-07T23:37:27.342Z,10.10
2022-09-07T23:40:00.591Z,13.90
2022-09-07T23:42:34.100Z,9.90
2022-09-07T23:45:08.480Z,9.40
2022-09-07T23:47:42.115Z,11.00
2022-09-07T23:50:15.765Z,9.10
2022-09-07T23:52:49.673Z,10.10
2022-09-07T23:55:23.238Z,9.00
2022-09-07T23:57:56.915Z,10.30
